• Join FlightAware (Why Join?)
  • Login
  • US Flag 
01:03AM EST


 

Airport Tracker/Info


-or-


 

Live Flight TrackerFlight Track Log ✈ RPA4886 ✈ 04-May-2013 ✈ KEWR - KORF

Flight Track Log - Related Links

Times and Time Zones

All times are in EDT time to prevent confusion due to time zone crossing. See the RPA4886 flight status page for this flight to view local times or setup timezone preferences in your user account.

Time Position Orientation Groundspeed Altitude Reporting Facility
EDT Latitude Longitude Course Direction KTS MPH feet Rate Location/Type
08:54AM 40.7167 -74.1500 217° Southwest 167 192 1,500  Level New York TRACON
08:55AM 40.7500 -74.1167 37° Northeast 197 227 3,900 1,260 Climbing New York TRACON
08:57AM 40.3125 -74.1568 157° South  Level FlightAware Approximate
08:58AM 40.2141 -74.1787 194° South  Level FlightAware Approximate
08:58AM 40.6853 -74.2519 238° Southwest 202 232 6,000  Level New York Center
08:59AM 40.1145 -74.2022 217° Southwest  Level FlightAware Approximate
08:59AM 40.6164 -74.2622 186° South 250 288 6,000  Level New York Center
09:00AM 40.5367 -74.2719 185° South 275 316 6,000  Level New York Center
09:01AM 40.4689 -74.2411 161° South 265 305 6,000  Level New York Center
09:02AM 40.4094 -74.2081 157° South 258 297 6,100  Climbing New York Center
09:03AM 40.3356 -74.1744 161° South 258 297 6,000 900 Descending New York Center
09:04AM 40.2706 -74.1875 189° South 258 297 7,900 2,160 Climbing New York Center
09:05AM 40.1989 -74.2086 193° South 258 297 10,300 2,400 Climbing New York Center
09:06AM 40.1214 -74.2264 190° South 258 297 12,700 1,980 Climbing New York Center
09:07AM 40.0372 -74.2447 189° South 255 293 14,600 1,740 Climbing Washington Center
09:08AM 39.9689 -74.2867 205° Southwest 263 303 16,500 1,680 Climbing Washington Center
09:09AM 39.9069 -74.3472 217° Southwest 269 310 18,000 1,260 Climbing Washington Center
09:10AM 39.8431 -74.4078 216° Southwest 286 329 19,000 1,140 Climbing Washington Center
09:11AM 39.7792 -74.4819 222° Southwest 293 337 20,300 1,320 Climbing Washington Center
09:12AM 39.7236 -74.5556 226° Southwest 293 337 21,700 1,260 Climbing Washington Center
09:13AM 39.6681 -74.6319 227° Southwest 293 337 22,900 1,080 Climbing Washington Center
09:14AM 39.6081 -74.7081 224° Southwest 299 344 23,900 540 Climbing Washington Center
09:15AM 39.5483 -74.7869 226° Southwest 305 351 24,000  Climbing Washington Center
09:16AM 39.4800 -74.8736 224° Southwest 323 372 24,000  Level Washington Center
09:17AM 39.4181 -74.9575 226° Southwest 338 389 24,000  Level Washington Center
09:18AM 39.3456 -75.0547 226° Southwest 362 417 24,000  Level Washington Center
09:19AM 39.2625 -75.1358 217° Southwest 375 432 24,000  Level Washington Center
09:20AM 39.1606 -75.1739 196° South 375 432 24,000 -60 Level Washington Center
09:21AM 39.0586 -75.2094 195° South 380 437 23,900  Descending Washington Center
09:22AM 38.9567 -75.2581 200° South 386 444 24,000  Climbing Washington Center
09:23AM 38.8567 -75.3011 199° South 386 444 24,000  Level Washington Center
09:24AM 38.7567 -75.3414 197° South 386 444 24,000  Level Washington Center
09:25AM 38.6544 -75.3844 198° South 386 444 24,000 -600 Level Washington Center
09:26AM 38.5567 -75.4244 198° South 386 444 22,900 -1,320 Descending Washington Center
09:27AM 38.4544 -75.4672 198° South 386 444 21,400 -1,500 Descending Washington Center
09:28AM 38.3567 -75.5069 198° South 380 437 20,000 -720 Descending Washington Center
09:29AM 38.2650 -75.5547 202° Southwest 375 432 20,000  Level Washington Center
09:30AM 38.1772 -75.6156 209° Southwest 364 419 20,000 -360 Level Washington Center
09:31AM 38.0875 -75.6708 206° Southwest 359 413 19,300 -1,320 Descending Washington Center
09:32AM 37.9853 -75.7394 208° Southwest 364 419 17,400 -1,920 Descending Washington Center
09:33AM 37.8978 -75.7917 205° Southwest 364 419 15,500 -1,920 Descending Washington Center
09:34AM 37.8100 -75.8414 204° Southwest 359 413 13,700 -1,620 Descending Washington Center
09:34AM 37.7808 -75.8625 210° Southwest 330 380 13,200 -1,680 Descending Washington Center
09:35AM 37.7347 -75.8886 204° Southwest 328 377 12,200 -1,800 Descending Washington Center
09:36AM 37.6514 -75.9406 206° Southwest 334 384 10,600 -1,560 Descending Washington Center
09:37AM 37.5803 -75.9744 201° Southwest 297 342 9,200 -1,560 Descending Washington Center
09:37AM 37.5114 -76.0108 203° Southwest 283 326 7,800 -1,560 Descending Washington Center
09:38AM 37.4967 -76.0186 203° Southwest 300 345 7,400 -1,500 Descending Washington Center
09:38AM 37.4403 -76.0469 202° Southwest 269 310 6,300 -1,380 Descending Washington Center
09:39AM 37.4256 -76.0547 203° Southwest 288 331 6,000 -1,200 Descending Washington Center
09:39AM 37.3733 -76.0831 203° Southwest 264 304 5,100 -1,020 Descending Washington Center
09:40AM 37.3628 -76.0883 202° Southwest 279 321 5,000 -120 Descending Washington Center
09:40AM 37.3022 -76.1219 204° Southwest 264 304 5,000  Level Washington Center
09:41AM 37.2981 -76.1269 224° Southwest 272 313 5,000  Level Washington Center
09:42AM 37.2394 -76.1581 203° Southwest 260 299 5,000  Level Washington Center
09:42AM 37.2250 -76.1631 195° South 272 313 5,000  Level Washington Center
09:43AM 37.1725 -76.1967 207° Southwest 263 303 5,000  Level Washington Center
09:44AM 37.1097 -76.2300 203° Southwest 259 298 5,000  Level Washington Center
09:45AM 37.0367 -76.2711 204° Southwest 262 302 5,000  Level Washington Center